Time;durP1;ratioP1;P1;durP2;ratioP2;P2;SDS_P1;SDS_P2;PMS_P1;PMS_P2;Temp;Humidity;BMP_temperature;BMP_pressure;BME280_temperature;BME280_humidity;BME280_pressure;Samples;Min_cycle;Max_cycle;Signal;HPM_P1;HPM_P2
2021/11/26 00:02:23;;;;;;;17.93;10.00;;;4.50;1.00;;;;;;4996555;28;20181;-75
2021/11/26 00:04:53;;;;;;;19.45;10.55;;;4.40;1.00;;;;;;4996176;28;20433;-75
2021/11/26 00:07:22;;;;;;;15.85;9.43;;;4.40;1.00;;;;;;4987579;28;20177;-75
2021/11/26 00:09:52;;;;;;;18.70;9.55;;;4.30;1.00;;;;;;4996759;28;20182;-73
2021/11/26 00:12:22;;;;;;;19.13;9.30;;;4.20;1.00;;;;;;4985856;28;20268;-73
2021/11/26 00:15:05;;;;;;;20.55;10.50;;;4.30;1.00;;;;;;4995699;28;20202;-74
2021/11/26 00:17:39;;;;;;;19.73;9.45;;;4.30;1.00;;;;;;4996187;28;20166;-74
2021/11/26 00:20:10;;;;;;;24.48;11.07;;;4.30;1.00;;;;;;4978080;28;20637;-73
2021/11/26 00:22:36;;;;;;;26.10;11.40;;;4.30;1.00;;;;;;4992006;28;20688;-74
2021/11/26 00:25:10;;;;;;;23.93;10.23;;;4.30;1.00;;;;;;4996316;28;20174;-75
2021/11/26 00:27:58;;;;;;;21.57;10.13;;;4.30;1.00;;;;;;4993022;28;20174;-75
2021/11/26 00:30:24;;;;;;;20.35;10.00;;;4.30;1.00;;;;;;4989574;28;20412;-75
2021/11/26 00:33:16;;;;;;;20.65;11.10;;;4.30;1.00;;;;;;4982797;28;20181;-75
2021/11/26 00:36:04;;;;;;;21.02;10.30;;;4.30;1.00;;;;;;4995808;28;20201;-75
2021/11/26 00:38:46;;;;;;;16.95;9.30;;;4.20;1.00;;;;;;4989534;28;20576;-75
2021/11/26 00:41:12;;;;;;;18.27;9.17;;;;;;;;;;4995853;28;20181;-75
2021/11/26 00:43:46;;;;;;;20.88;10.32;;;4.20;1.00;;;;;;4995658;28;20402;-75
2021/11/26 00:46:23;;;;;;;17.52;9.43;;;4.10;1.00;;;;;;4995645;28;20583;-75
2021/11/26 00:48:48;;;;;;;23.67;9.18;;;4.10;1.00;;;;;;4995871;28;20177;-75
2021/11/26 00:51:15;;;;;;;19.13;9.37;;;4.10;1.00;;;;;;4994395;28;20255;-75
2021/11/26 00:53:59;;;;;;;21.75;10.00;;;4.00;1.00;;;;;;4995604;28;20201;-75
2021/11/26 00:56:25;;;;;;;18.77;9.10;;;4.00;1.00;;;;;;4995399;28;20216;-75
2021/11/26 00:58:51;;;;;;;22.90;10.18;;;3.90;1.00;;;;;;4995708;28;20203;-75
2021/11/26 01:01:17;;;;;;;19.87;9.70;;;;;;;;;;4995253;28;20189;-75
2021/11/26 01:03:46;;;;;;;23.08;9.80;;;3.80;1.00;;;;;;4995372;28;20577;-75
2021/11/26 01:06:12;;;;;;;20.85;8.80;;;3.80;1.00;;;;;;4995281;28;20626;-75
2021/11/26 01:08:39;;;;;;;18.13;9.60;;;3.80;1.00;;;;;;4995445;28;20312;-75
2021/11/26 01:11:23;;;;;;;18.83;9.60;;;3.80;1.00;;;;;;4995215;28;20209;-75
2021/11/26 01:14:04;;;;;;;26.65;10.02;;;3.70;1.00;;;;;;4995260;28;20210;-75
2021/11/26 01:16:40;;;;;;;29.15;10.13;;;3.60;1.00;;;;;;4995318;28;20182;-75
2021/11/26 01:19:06;;;;;;;23.42;9.98;;;3.50;1.00;;;;;;4988716;28;20780;-75
2021/11/26 01:21:34;;;;;;;19.37;10.40;;;3.40;1.00;;;;;;4995342;28;20169;-75
2021/11/26 01:24:00;;;;;;;22.63;10.43;;;3.30;1.00;;;;;;4995302;28;20182;-75
2021/11/26 01:26:26;;;;;;;21.67;9.90;;;3.20;1.00;;;;;;4995317;28;20644;-74
2021/11/26 01:28:52;;;;;;;26.83;9.20;;;3.00;1.00;;;;;;4994911;28;20182;-74
2021/11/26 01:31:19;;;;;;;25.20;11.95;;;3.00;1.00;;;;;;4994479;28;20185;-73
2021/11/26 01:33:45;;;;;;;22.48;11.25;;;2.90;1.00;;;;;;4994710;28;20223;-73
2021/11/26 01:36:28;;;;;;;26.13;13.05;;;2.80;1.00;;;;;;4993347;28;20619;-74
2021/11/26 01:39:10;;;;;;;30.88;12.60;;;2.70;1.00;;;;;;4988357;28;20641;-74
2021/11/26 01:41:42;;;;;;;24.42;12.32;;;2.60;1.00;;;;;;4987169;28;20611;-73
2021/11/26 01:44:09;;;;;;;24.20;12.70;;;2.50;1.00;;;;;;4994653;28;20214;-74
2021/11/26 01:46:43;;;;;;;18.60;10.40;;;2.50;1.00;;;;;;4994520;28;20255;-73
2021/11/26 01:49:10;;;;;;;23.70;12.70;;;2.40;1.00;;;;;;4987510;28;20569;-74
2021/11/26 01:51:36;;;;;;;28.30;12.80;;;2.30;1.00;;;;;;4994650;28;20263;-74
2021/11/26 01:54:03;;;;;;;20.27;11.38;;;2.30;1.00;;;;;;4994560;28;20213;-74
2021/11/26 01:56:29;;;;;;;30.75;12.63;;;2.20;1.00;;;;;;4997941;28;20252;-75
2021/11/26 01:58:55;;;;;;;25.07;11.93;;;2.10;1.00;;;;;;4994619;28;20260;-75
2021/11/26 02:01:23;;;;;;;25.02;12.23;;;;;;;;;;4994485;28;20178;-75
2021/11/26 02:03:49;;;;;;;27.10;11.98;;;1.90;1.00;;;;;;4994289;28;20177;-75
2021/11/26 02:06:16;;;;;;;22.07;11.47;;;1.80;1.00;;;;;;4994036;28;20189;-74
2021/11/26 02:08:50;;;;;;;29.38;13.07;;;1.80;1.00;;;;;;4987128;28;20468;-75
2021/11/26 02:11:17;;;;;;;21.73;12.10;;;1.80;1.00;;;;;;4989908;28;20192;-74
2021/11/26 02:13:43;;;;;;;26.35;12.50;;;1.80;1.00;;;;;;4994183;28;20205;-74
2021/11/26 02:16:16;;;;;;;21.33;11.57;;;1.80;1.00;;;;;;4994088;28;20252;-74
2021/11/26 02:18:50;;;;;;;28.35;12.55;;;1.80;1.00;;;;;;4994129;28;20471;-74
2021/11/26 02:21:18;;;;;;;26.42;12.88;;;1.80;1.00;;;;;;4994186;28;20182;-74
2021/11/26 02:23:48;;;;;;;23.33;11.23;;;1.80;1.00;;;;;;4985288;28;20182;-74
2021/11/26 02:26:14;;;;;;;23.17;11.48;;;1.80;1.00;;;;;;4990752;28;20197;-74
2021/11/26 02:28:41;;;;;;;25.30;12.50;;;1.80;1.00;;;;;;4993753;28;20515;-73
2021/11/26 02:31:16;;;;;;;23.25;12.05;;;1.90;1.00;;;;;;4994081;28;20424;-74
2021/11/26 02:33:42;;;;;;;31.40;12.80;;;1.90;1.00;;;;;;4993925;28;20264;-74
2021/11/26 02:36:10;;;;;;;29.43;11.57;;;2.00;1.00;;;;;;4989887;28;20174;-74
2021/11/26 02:38:36;;;;;;;24.10;12.90;;;2.00;1.00;;;;;;4988835;28;20272;-74
2021/11/26 02:41:04;;;;;;;30.27;12.60;;;2.10;1.00;;;;;;4994450;28;20265;-73
2021/11/26 02:43:30;;;;;;;25.55;14.02;;;2.10;1.00;;;;;;4993914;28;20186;-74
2021/11/26 02:45:56;;;;;;;23.33;13.20;;;2.20;1.00;;;;;;4994126;28;20687;-74
2021/11/26 02:48:22;;;;;;;27.50;13.80;;;2.30;1.00;;;;;;4990495;28;20193;-74
2021/11/26 02:51:05;;;;;;;25.73;13.80;;;2.30;1.00;;;;;;4994083;28;20606;-74
2021/11/26 02:53:31;;;;;;;29.38;13.70;;;2.40;1.00;;;;;;4980687;28;20245;-74
2021/11/26 02:55:57;;;;;;;25.05;12.95;;;2.50;1.00;;;;;;4994105;28;20177;-74
2021/11/26 02:58:24;;;;;;;28.25;13.15;;;2.60;1.00;;;;;;4993858;28;20264;-74
2021/11/26 03:00:53;;;;;;;27.95;13.40;;;2.70;1.00;;;;;;4993843;28;20170;-74
2021/11/26 03:03:29;;;;;;;30.27;14.18;;;2.70;1.00;;;;;;4993289;28;20209;-74
2021/11/26 03:06:10;;;;;;;28.20;13.77;;;2.80;1.00;;;;;;4993882;28;20268;-74
2021/11/26 03:08:36;;;;;;;33.35;13.23;;;2.90;1.00;;;;;;4993570;28;20182;-74
2021/11/26 03:11:10;;;;;;;27.23;13.70;;;2.90;1.00;;;;;;4994051;28;20629;-75
2021/11/26 03:13:36;;;;;;;28.10;12.98;;;3.00;1.00;;;;;;4988403;28;20201;-75
2021/11/26 03:16:05;;;;;;;29.40;15.43;;;3.00;1.00;;;;;;4993849;28;20498;-75
2021/11/26 03:18:31;;;;;;;30.50;15.25;;;3.00;1.00;;;;;;4993264;28;20201;-75
2021/11/26 03:20:57;;;;;;;26.02;14.80;;;3.10;1.00;;;;;;4993338;28;20178;-75
2021/11/26 03:23:23;;;;;;;27.05;14.23;;;3.10;1.00;;;;;;4993044;28;20205;-75
2021/11/26 03:25:49;;;;;;;24.35;13.25;;;3.20;1.00;;;;;;4992873;28;20182;-75
2021/11/26 03:28:16;;;;;;;26.20;12.80;;;3.10;1.00;;;;;;4992435;28;20268;-75
2021/11/26 03:30:42;;;;;;;31.50;12.88;;;3.10;1.00;;;;;;4992053;28;20181;-75
2021/11/26 03:33:09;;;;;;;28.10;11.55;;;3.10;1.00;;;;;;4993327;28;20672;-75
2021/11/26 03:35:36;;;;;;;29.33;13.25;;;3.10;1.00;;;;;;4996044;28;20268;-75
2021/11/26 03:38:02;;;;;;;25.60;13.25;;;;;;;;;;4994609;28;20197;-75
2021/11/26 03:40:28;;;;;;;29.35;12.60;;;3.10;1.00;;;;;;4995479;28;20193;-74
2021/11/26 03:42:56;;;;;;;37.55;13.77;;;3.10;1.00;;;;;;4996074;28;20193;-75
2021/11/26 03:45:25;;;;;;;27.15;12.77;;;3.10;1.00;;;;;;4996023;28;20661;-75
2021/11/26 03:47:51;;;;;;;28.95;14.07;;;3.10;1.00;;;;;;4995260;28;20629;-75
2021/11/26 03:50:18;;;;;;;26.35;13.48;;;3.20;1.00;;;;;;4995877;28;20196;-75
2021/11/26 03:52:44;;;;;;;27.98;13.65;;;;;;;;;;4995786;28;20184;-75
2021/11/26 03:55:14;;;;;;;25.17;13.15;;;3.30;1.00;;;;;;5002236;28;20177;-75
2021/11/26 03:57:40;;;;;;;35.10;14.63;;;3.30;1.00;;;;;;4983799;28;20252;-74
2021/11/26 04:00:07;;;;;;;24.03;13.60;;;3.40;1.00;;;;;;4995715;28;20182;-74
2021/11/26 04:02:33;;;;;;;30.33;14.02;;;3.40;1.00;;;;;;4995939;28;20176;-74
2021/11/26 04:04:58;;;;;;;33.03;13.73;;;3.50;1.00;;;;;;4995397;28;20514;-74
2021/11/26 04:07:24;;;;;;;25.27;10.87;;;3.50;1.00;;;;;;4995399;28;20595;-74
2021/11/26 04:09:50;;;;;;;24.00;11.23;;;3.50;1.00;;;;;;4995344;28;20185;-74
2021/11/26 04:12:15;;;;;;;23.60;11.20;;;3.50;1.00;;;;;;4995767;28;20181;-75
2021/11/26 04:14:41;;;;;;;27.13;11.60;;;3.60;1.00;;;;;;4995190;28;20204;-75
2021/11/26 04:17:10;;;;;;;29.30;12.47;;;3.60;1.00;;;;;;4995913;28;20269;-75
2021/11/26 04:19:37;;;;;;;24.98;10.50;;;3.60;1.00;;;;;;4994281;28;20176;-75
2021/11/26 04:22:03;;;;;;;21.42;10.52;;;3.70;1.00;;;;;;4995500;28;20385;-75
2021/11/26 04:24:29;;;;;;;26.98;13.30;;;3.70;1.00;;;;;;4995198;28;20166;-75
2021/11/26 04:26:55;;;;;;;25.33;13.07;;;3.70;1.00;;;;;;4995655;28;20178;-74
2021/11/26 04:29:21;;;;;;;28.53;14.67;;;3.70;1.00;;;;;;4990527;28;20595;-74
2021/11/26 04:31:47;;;;;;;25.30;11.77;;;3.70;1.00;;;;;;4986605;28;20181;-74
2021/11/26 04:34:13;;;;;;;28.48;12.10;;;3.70;1.00;;;;;;4994703;28;20209;-74
2021/11/26 04:36:39;;;;;;;32.10;12.97;;;3.70;1.00;;;;;;4994893;28;20182;-74
2021/11/26 04:39:05;;;;;;;26.47;12.70;;;3.70;1.00;;;;;;4994090;28;20174;-74
2021/11/26 04:41:31;;;;;;;23.75;10.75;;;3.80;1.00;;;;;;4995353;28;20657;-74
2021/11/26 04:43:57;;;;;;;25.23;11.87;;;3.70;1.00;;;;;;4994917;28;20174;-74
2021/11/26 04:46:22;;;;;;;29.33;11.30;;;3.70;1.00;;;;;;4993574;28;20432;-74
2021/11/26 04:48:48;;;;;;;25.70;11.70;;;;;;;;;;4994619;28;20548;-74
2021/11/26 04:51:14;;;;;;;23.37;10.93;;;3.80;1.00;;;;;;4994725;28;20216;-74
2021/11/26 04:53:40;;;;;;;18.50;10.87;;;3.70;1.00;;;;;;4994291;28;20461;-74
2021/11/26 04:56:05;;;;;;;21.17;10.97;;;3.90;1.00;;;;;;4997445;28;20256;-74
2021/11/26 04:58:35;;;;;;;28.03;12.30;;;3.90;1.00;;;;;;4995183;28;20181;-74
2021/11/26 05:01:05;;;;;;;24.55;11.35;;;3.90;1.00;;;;;;4994588;28;20178;-74
2021/11/26 05:03:31;;;;;;;19.88;10.73;;;3.90;1.00;;;;;;4994414;28;20533;-74
2021/11/26 05:05:57;;;;;;;30.63;11.48;;;3.90;1.00;;;;;;4994200;28;20244;-74
2021/11/26 05:08:23;;;;;;;24.00;10.77;;;3.90;1.00;;;;;;4994618;28;20188;-74
2021/11/26 05:10:53;;;;;;;22.73;10.13;;;;;;;;;;4994134;28;20178;-74
2021/11/26 05:13:21;;;;;;;31.88;13.18;;;3.90;1.00;;;;;;4994629;28;20209;-75
2021/11/26 05:15:52;;;;;;;27.20;12.13;;;3.90;1.00;;;;;;4994740;28;20271;-75
2021/11/26 05:18:23;;;;;;;27.03;11.03;;;3.90;1.00;;;;;;4991398;28;20178;-75
2021/11/26 05:20:50;;;;;;;22.47;10.40;;;3.90;1.00;;;;;;4994213;28;20413;-75
2021/11/26 05:23:16;;;;;;;27.80;11.95;;;4.00;1.00;;;;;;4993639;28;20425;-75
2021/11/26 05:25:42;;;;;;;20.00;10.80;;;3.90;1.00;;;;;;4994037;28;20292;-75
2021/11/26 05:28:07;;;;;;;21.60;10.30;;;3.90;1.00;;;;;;4994441;28;20594;-75
2021/11/26 05:30:33;;;;;;;25.10;11.37;;;3.80;1.00;;;;;;4993727;28;20219;-75
2021/11/26 05:33:00;;;;;;;27.43;12.63;;;3.80;1.00;;;;;;4993749;28;20209;-75
2021/11/26 05:35:26;;;;;;;28.05;12.23;;;3.80;1.00;;;;;;4994145;28;20529;-75
2021/11/26 05:37:52;;;;;;;21.43;10.20;;;;;;;;;;4993833;28;20199;-75
2021/11/26 05:40:19;;;;;;;25.48;11.57;;;;;;;;;;4993906;28;20416;-75
2021/11/26 05:42:46;;;;;;;18.23;9.50;;;3.80;1.00;;;;;;4994238;28;20228;-75
2021/11/26 05:45:14;;;;;;;21.80;10.47;;;3.80;1.00;;;;;;4992540;28;20212;-75
2021/11/26 05:47:40;;;;;;;21.20;10.57;;;3.80;1.00;;;;;;4993380;28;20421;-75
2021/11/26 05:50:08;;;;;;;25.75;12.50;;;3.80;1.00;;;;;;4989292;28;20213;-75
2021/11/26 05:52:35;;;;;;;35.80;11.02;;;3.80;1.00;;;;;;4993366;28;20185;-75
2021/11/26 05:55:03;;;;;;;23.80;11.60;;;3.80;1.00;;;;;;4997033;28;20420;-75
2021/11/26 05:57:28;;;;;;;27.42;12.05;;;3.80;1.00;;;;;;4993616;28;20661;-74
2021/11/26 05:59:54;;;;;;;20.10;10.80;;;3.80;1.00;;;;;;4993161;28;20213;-74
2021/11/26 06:02:19;;;;;;;22.03;11.50;;;3.80;1.00;;;;;;4993541;28;20645;-74
2021/11/26 06:04:45;;;;;;;26.43;11.53;;;3.80;1.00;;;;;;4993522;28;20205;-74
2021/11/26 06:07:11;;;;;;;28.30;10.60;;;3.80;1.00;;;;;;4993111;28;20201;-74
2021/11/26 06:09:40;;;;;;;22.23;11.50;;;3.90;1.00;;;;;;4993284;28;20181;-74
2021/11/26 06:12:09;;;;;;;27.02;12.05;;;3.90;1.00;;;;;;4990302;28;20649;-74
2021/11/26 06:14:35;;;;;;;29.85;11.32;;;3.80;1.00;;;;;;4990074;28;20181;-74
2021/11/26 06:17:01;;;;;;;24.48;12.13;;;3.80;1.00;;;;;;4992884;28;20189;-74
2021/11/26 06:19:26;;;;;;;30.17;12.00;;;3.80;1.00;;;;;;4992416;28;20185;-77
2021/11/26 06:21:52;;;;;;;19.03;10.27;;;3.80;1.00;;;;;;4992381;28;20173;-75
2021/11/26 06:24:18;;;;;;;27.17;10.50;;;3.80;1.00;;;;;;4992814;28;20348;-75
2021/11/26 06:26:43;;;;;;;18.43;10.70;;;3.80;1.00;;;;;;4993030;28;20177;-74
2021/11/26 06:29:09;;;;;;;26.67;11.90;;;3.90;1.00;;;;;;4992617;28;20173;-76
2021/11/26 06:31:34;;;;;;;27.80;11.80;;;3.80;1.00;;;;;;4992700;28;20252;-75
2021/11/26 06:34:01;;;;;;;15.10;9.50;;;3.90;1.00;;;;;;4992831;28;20186;-75
2021/11/26 06:36:26;;;;;;;25.23;11.95;;;3.90;1.00;;;;;;4993105;28;20645;-75
2021/11/26 06:38:52;;;;;;;22.63;11.10;;;3.90;1.00;;;;;;4993199;28;20201;-75
2021/11/26 06:41:17;;;;;;;28.03;11.07;;;3.90;1.00;;;;;;4993206;28;20182;-75
2021/11/26 06:43:43;;;;;;;23.13;10.77;;;3.90;1.00;;;;;;4993057;28;20212;-74
2021/11/26 06:46:09;;;;;;;20.30;10.00;;;;;;;;;;4992816;28;20189;-74
2021/11/26 06:48:36;;;;;;;29.83;12.10;;;4.00;1.00;;;;;;4993126;28;20182;-74
2021/11/26 06:51:01;;;;;;;22.17;10.07;;;3.90;1.00;;;;;;4993227;28;20482;-74
2021/11/26 06:53:27;;;;;;;22.77;11.00;;;3.90;1.00;;;;;;4991836;28;20264;-74
2021/11/26 06:55:52;;;;;;;26.03;11.53;;;3.90;1.00;;;;;;4988887;28;20217;-73
2021/11/26 06:58:18;;;;;;;19.80;10.03;;;3.90;1.00;;;;;;4993359;28;20178;-74
2021/11/26 07:00:44;;;;;;;21.73;11.47;;;3.90;1.00;;;;;;4988461;28;20186;-75
2021/11/26 07:03:09;;;;;;;21.90;11.60;;;3.90;1.00;;;;;;4992462;28;20208;-74
2021/11/26 07:05:35;;;;;;;26.43;11.10;;;3.90;1.00;;;;;;4992778;28;20197;-74
2021/11/26 07:08:01;;;;;;;30.77;12.10;;;;;;;;;;4992169;28;20188;-74
2021/11/26 07:10:26;;;;;;;25.90;11.03;;;3.90;1.00;;;;;;4996747;28;20182;-72
2021/11/26 07:12:52;;;;;;;24.27;10.97;;;4.00;1.00;;;;;;4996410;28;20471;-74
2021/11/26 07:15:18;;;;;;;21.13;10.67;;;4.00;1.00;;;;;;4995654;28;20185;-74
2021/11/26 07:17:44;;;;;;;22.23;10.52;;;4.00;1.00;;;;;;4995799;28;20184;-75
2021/11/26 07:20:11;;;;;;;26.42;11.32;;;4.00;1.00;;;;;;4992473;28;20175;-74
2021/11/26 07:22:42;;;;;;;29.92;11.45;;;4.00;1.00;;;;;;4977170;28;20158;-74
2021/11/26 07:25:09;;;;;;;22.15;10.40;;;4.00;1.00;;;;;;4983119;28;20201;-74
2021/11/26 07:27:35;;;;;;;21.70;11.07;;;4.00;1.00;;;;;;4994592;28;20629;-74
2021/11/26 07:30:01;;;;;;;27.73;12.07;;;4.00;1.00;;;;;;4996363;28;20174;-74
2021/11/26 07:32:27;;;;;;;22.00;11.47;;;;;;;;;;4983053;28;20483;-74
2021/11/26 07:34:52;;;;;;;27.73;10.55;;;4.10;1.00;;;;;;4991538;28;20432;-74
2021/11/26 07:37:18;;;;;;;18.33;9.00;;;4.10;1.00;;;;;;5009138;28;20204;-74
2021/11/26 07:39:44;;;;;;;23.03;11.77;;;4.10;1.00;;;;;;4995937;28;20519;-74
2021/11/26 07:42:11;;;;;;;27.33;10.90;;;4.20;1.00;;;;;;4992682;28;20212;-73
2021/11/26 07:44:38;;;;;;;17.90;9.80;;;4.20;1.00;;;;;;4993202;28;20212;-78
2021/11/26 07:47:07;;;;;;;22.08;11.25;;;4.20;1.00;;;;;;4996043;28;20943;-76
2021/11/26 07:49:33;;;;;;;24.97;11.57;;;4.20;1.00;;;;;;4995903;28;20182;-76
2021/11/26 07:52:00;;;;;;;24.70;10.53;;;4.30;1.00;;;;;;4995414;28;20815;-76
2021/11/26 07:54:27;;;;;;;20.83;10.52;;;4.30;1.00;;;;;;4996190;28;20417;-75
2021/11/26 07:56:53;;;;;;;23.17;10.57;;;4.40;1.00;;;;;;4995886;28;20187;-74
2021/11/26 07:59:19;;;;;;;20.60;10.20;;;4.40;1.00;;;;;;4996225;28;20786;-75
2021/11/26 08:01:45;;;;;;;28.08;12.80;;;4.40;1.00;;;;;;4995612;28;20428;-76
2021/11/26 08:04:11;;;;;;;28.03;10.40;;;4.40;1.00;;;;;;4995650;28;20715;-75
2021/11/26 08:06:36;;;;;;;18.67;10.33;;;4.40;1.00;;;;;;4995687;28;20756;-76
2021/11/26 08:09:07;;;;;;;21.53;10.40;;;4.50;1.00;;;;;;4995419;28;20696;-75
2021/11/26 08:11:33;;;;;;;21.83;11.10;;;4.50;1.00;;;;;;4992254;28;20645;-75
2021/11/26 08:13:59;;;;;;;25.43;11.20;;;4.50;1.00;;;;;;4995546;28;20189;-75
2021/11/26 08:16:24;;;;;;;18.03;10.00;;;4.50;1.00;;;;;;4995486;28;20196;-75
2021/11/26 08:18:50;;;;;;;16.80;9.33;;;4.70;1.00;;;;;;4992178;28;20480;-75
2021/11/26 08:21:15;;;;;;;21.27;10.63;;;4.70;1.00;;;;;;4990607;28;20545;-75
2021/11/26 08:23:41;;;;;;;20.17;10.53;;;4.70;1.00;;;;;;4995483;28;20232;-75
2021/11/26 08:26:07;;;;;;;26.80;10.90;;;4.70;1.00;;;;;;4995265;28;20239;-74
2021/11/26 08:28:33;;;;;;;17.83;10.13;;;4.60;1.00;;;;;;4995100;28;20178;-73
2021/11/26 08:30:58;;;;;;;21.80;10.23;;;4.60;1.00;;;;;;4994262;28;20428;-80
2021/11/26 08:33:25;;;;;;;17.97;10.07;;;4.70;1.00;;;;;;4994914;28;20190;-76
2021/11/26 08:35:52;;;;;;;18.60;9.98;;;4.80;1.00;;;;;;4993164;28;20181;-76
2021/11/26 08:38:18;;;;;;;23.38;10.73;;;4.80;1.00;;;;;;4995052;28;20202;-76
2021/11/26 08:40:44;;;;;;;25.63;10.37;;;;;;;;;;4994426;28;20185;-76
2021/11/26 08:43:10;;;;;;;24.23;11.60;;;;;;;;;;4994874;28;20228;-76
2021/11/26 08:45:41;;;;;;;17.23;8.67;;;5.10;1.00;;;;;;4991596;28;20429;-76
2021/11/26 08:48:07;;;;;;;24.40;11.50;;;;;;;;;;4994778;28;20443;-76
2021/11/26 08:50:34;;;;;;;21.50;9.90;;;5.40;1.00;;;;;;4994727;28;20900;-76
2021/11/26 08:53:05;;;;;;;21.13;10.90;;;5.40;1.00;;;;;;4994357;28;20452;-76
2021/11/26 08:55:32;;;;;;;17.25;9.75;;;5.50;1.00;;;;;;4995439;28;20448;-76
2021/11/26 08:58:02;;;;;;;18.03;9.47;;;5.50;1.00;;;;;;4994951;28;20185;-76
2021/11/26 09:00:34;;;;;;;19.57;10.33;;;5.60;1.00;;;;;;4994808;28;20435;-76
2021/11/26 09:03:05;;;;;;;24.30;9.93;;;5.60;1.00;;;;;;4993610;28;20934;-76
2021/11/26 09:05:34;;;;;;;29.47;10.73;;;5.60;1.00;;;;;;4994638;28;20935;-76
2021/11/26 09:08:03;;;;;;;22.30;10.57;;;5.60;1.00;;;;;;4994281;28;20424;-76
2021/11/26 09:10:37;;;;;;;18.87;8.67;;;5.70;1.00;;;;;;4994665;28;20405;-76
2021/11/26 09:13:06;;;;;;;23.70;10.20;;;5.70;1.00;;;;;;4994342;28;20421;-76
2021/11/26 09:15:33;;;;;;;23.90;11.10;;;5.70;1.00;;;;;;4994780;28;20409;-75
2021/11/26 09:17:58;;;;;;;24.10;10.87;;;5.80;1.00;;;;;;4994174;28;20504;-74
2021/11/26 09:20:25;;;;;;;21.43;9.70;;;5.90;1.00;;;;;;4994385;28;20516;-74
2021/11/26 09:22:51;;;;;;;19.33;10.43;;;6.10;1.00;;;;;;4993278;28;20635;-74
2021/11/26 09:25:16;;;;;;;23.23;10.43;;;6.20;1.00;;;;;;4990097;28;20555;-74
2021/11/26 09:27:43;;;;;;;21.27;10.83;;;6.30;1.00;;;;;;4993887;28;20264;-74
2021/11/26 09:30:12;;;;;;;23.53;10.60;;;6.20;1.00;;;;;;4994532;28;20440;-74
2021/11/26 09:32:38;;;;;;;18.33;10.20;;;6.20;1.00;;;;;;4993634;28;20751;-74
2021/11/26 09:35:05;;;;;;;17.37;9.77;;;6.20;1.00;;;;;;4993760;28;20479;-74
2021/11/26 09:37:31;;;;;;;16.87;9.10;;;;;;;;;;4993857;28;20212;-74
2021/11/26 09:39:57;;;;;;;26.63;10.97;;;6.30;1.00;;;;;;4993895;28;20421;-74
2021/11/26 09:42:23;;;;;;;19.00;10.27;;;6.20;1.00;;;;;;4993816;28;20420;-74
2021/11/26 09:44:49;;;;;;;18.73;9.60;;;6.30;1.00;;;;;;4993714;28;20452;-77
2021/11/26 09:47:15;;;;;;;20.27;10.37;;;6.30;1.00;;;;;;4992904;28;20232;-76
2021/11/26 09:49:41;;;;;;;24.93;11.50;;;6.30;1.00;;;;;;4988910;28;20424;-79
2021/11/26 09:52:08;;;;;;;18.77;10.30;;;6.30;1.00;;;;;;4993785;28;20185;-77
2021/11/26 09:54:38;;;;;;;20.77;10.87;;;6.40;1.00;;;;;;4993413;28;20181;-76
2021/11/26 09:57:04;;;;;;;22.10;11.87;;;6.20;1.00;;;;;;4993761;28;20482;-76
2021/11/26 09:59:30;;;;;;;17.73;9.90;;;6.30;1.00;;;;;;4993471;28;20432;-73
2021/11/26 10:01:57;;;;;;;22.40;9.87;;;6.30;1.00;;;;;;4993548;28;20501;-74
2021/11/26 10:04:23;;;;;;;29.00;10.30;;;6.30;1.00;;;;;;4993159;28;20630;-74
2021/11/26 10:06:49;;;;;;;22.30;10.60;;;;;;;;;;4988879;28;20488;-76
2021/11/26 10:09:18;;;;;;;22.00;9.27;;;6.30;1.00;;;;;;4993336;28;20170;-73
2021/11/26 10:11:56;;;;;;;18.67;9.93;;;6.30;1.00;;;;;;4993771;28;20405;-74
2021/11/26 10:14:25;;;;;;;18.93;9.27;;;6.30;1.00;;;;;;4981697;28;20409;-76
2021/11/26 10:17:08;;;;;;;15.60;6.80;;;6.30;1.00;;;;;;4993076;28;20516;-76
2021/11/26 10:19:39;;;;;;;14.67;8.37;;;6.30;1.00;;;;;;4989190;28;20820;-75
2021/11/26 10:22:15;;;;;;;21.17;10.37;;;6.20;1.00;;;;;;4993478;28;20421;-75
2021/11/26 10:24:41;;;;;;;19.47;10.30;;;6.20;1.00;;;;;;4993144;28;20452;-76
2021/11/26 10:27:07;;;;;;;24.70;11.10;;;6.30;1.00;;;;;;4993311;28;20408;-76
2021/11/26 10:29:38;;;;;;;19.40;10.10;;;6.20;1.00;;;;;;4993910;28;20413;-75
2021/11/26 10:32:04;;;;;;;23.40;11.10;;;;;;;;;;4973923;28;20221;-75
2021/11/26 10:34:30;;;;;;;11.83;6.50;;;6.10;1.00;;;;;;4990817;28;20428;-75
2021/11/26 10:36:56;;;;;;;21.47;10.53;;;6.10;1.00;;;;;;4992070;28;21039;-76
2021/11/26 10:39:23;;;;;;;18.33;10.50;;;6.10;1.00;;;;;;4993252;28;20470;-76
2021/11/26 10:41:55;;;;;;;17.70;9.63;;;6.10;1.00;;;;;;4990863;28;20512;-77
2021/11/26 10:44:53;;;;;;;21.67;10.07;;;6.10;1.00;;;;;;4997227;28;20492;-75
2021/11/26 10:58:21;;;;;;;20.27;10.17;;;6.30;1.00;;;;;;4996783;28;20781;-73
2021/11/26 11:00:47;;;;;;;22.80;10.10;;;6.30;1.00;;;;;;4997280;28;20421;-74
2021/11/26 11:03:14;;;;;;;20.60;9.53;;;6.30;1.00;;;;;;4996411;28;20424;-74
2021/11/26 11:05:41;;;;;;;19.50;8.70;;;6.20;1.00;;;;;;4992789;28;20516;-74
2021/11/26 11:08:22;;;;;;;18.77;9.70;;;;;;;;;;4995093;28;20421;-74
2021/11/26 11:10:49;;;;;;;28.17;11.93;;;;;;;;;;4988842;28;20420;-73
2021/11/26 11:13:19;;;;;;;23.73;9.93;;;6.40;1.00;;;;;;4975027;28;20751;-75
2021/11/26 11:15:47;;;;;;;16.00;9.73;;;6.30;1.00;;;;;;4996270;28;20429;-71
2021/11/26 11:18:15;;;;;;;17.13;10.20;;;6.40;1.00;;;;;;4996627;28;20409;-71
2021/11/26 11:20:42;;;;;;;21.10;8.67;;;6.40;1.00;;;;;;4996225;28;20447;-74
2021/11/26 11:23:08;;;;;;;21.93;10.43;;;6.20;1.00;;;;;;4996477;28;20425;-75
2021/11/26 11:25:35;;;;;;;21.70;11.57;;;6.10;1.00;;;;;;4994220;28;20792;-74
2021/11/26 11:28:09;;;;;;;26.07;11.13;;;5.90;1.00;;;;;;4996371;28;20420;-73
2021/11/26 11:30:37;;;;;;;18.30;10.10;;;5.90;1.00;;;;;;4994821;28;20503;-75
2021/11/26 11:33:03;;;;;;;21.37;10.10;;;5.80;1.00;;;;;;4995003;28;20443;-74
2021/11/26 11:35:31;;;;;;;22.57;10.30;;;5.80;1.00;;;;;;4994246;28;20436;-74
2021/11/26 11:37:59;;;;;;;22.40;10.53;;;5.80;1.00;;;;;;4986510;28;20475;-74
2021/11/26 11:40:38;;;;;;;20.93;10.90;;;5.70;1.00;;;;;;4995834;28;20436;-74
2021/11/26 11:43:15;;;;;;;21.57;10.60;;;5.80;1.00;;;;;;4989216;28;20417;-74
2021/11/26 11:45:54;;;;;;;25.03;12.40;;;5.80;1.00;;;;;;4993103;28;20416;-74
2021/11/26 11:48:25;;;;;;;35.57;12.37;;;5.80;1.00;;;;;;4995839;28;20428;-74
2021/11/26 11:50:51;;;;;;;28.07;12.00;;;5.70;1.00;;;;;;4995869;28;20413;-74
2021/11/26 11:53:31;;;;;;;24.90;11.80;;;5.80;1.00;;;;;;4995712;28;20487;-74
2021/11/26 11:56:25;;;;;;;22.87;10.37;;;5.90;1.00;;;;;;5005656;28;20415;-73
2021/11/26 11:58:55;;;;;;;18.93;10.27;;;5.80;1.00;;;;;;4955657;28;20429;-73
2021/11/26 12:01:28;;;;;;;23.90;10.77;;;5.60;1.00;;;;;;4970137;28;20778;-74
2021/11/26 12:04:11;;;;;;;21.87;11.23;;;5.50;1.00;;;;;;4955421;28;20466;-74
2021/11/26 12:06:42;;;;;;;25.27;11.37;;;5.60;1.00;;;;;;4967850;28;20655;-74
2021/11/26 12:09:26;;;;;;;28.37;11.60;;;5.50;1.00;;;;;;4956112;28;20948;-75
2021/11/26 12:12:09;;;;;;;27.40;11.40;;;5.40;1.00;;;;;;4951067;29;20942;-75
2021/11/26 12:14:49;;;;;;;26.07;12.63;;;5.50;1.00;;;;;;4938542;29;20869;-74
2021/11/26 12:17:35;;;;;;;26.57;11.50;;;5.50;1.00;;;;;;4954314;29;20433;-74
2021/11/26 12:20:08;;;;;;;22.87;10.80;;;5.60;1.00;;;;;;4954341;29;20845;-74
2021/11/26 12:22:41;;;;;;;20.50;11.77;;;5.60;1.00;;;;;;4961960;28;20432;-74
2021/11/26 12:25:31;;;;;;;26.97;11.83;;;5.50;1.00;;;;;;4947510;28;20980;-73
2021/11/26 12:28:05;;;;;;;18.80;10.27;;;5.50;1.00;;;;;;4953238;28;20418;-74
2021/11/26 12:30:31;;;;;;;20.00;10.73;;;5.40;1.00;;;;;;4939852;29;20419;-74
2021/11/26 12:32:57;;;;;;;32.83;12.87;;;5.40;1.00;;;;;;4954320;29;20925;-77
2021/11/26 12:35:23;;;;;;;30.03;13.03;;;5.30;1.00;;;;;;4982718;28;20420;-78
2021/11/26 12:37:56;;;;;;;25.33;11.77;;;5.40;1.00;;;;;;4995171;28;20954;-78
2021/11/26 12:40:24;;;;;;;25.43;11.10;;;5.40;1.00;;;;;;4995110;28;20409;-77
2021/11/26 12:42:58;;;;;;;25.00;11.63;;;5.40;1.00;;;;;;4994352;28;20953;-77
2021/11/26 12:45:25;;;;;;;21.83;11.37;;;5.50;1.00;;;;;;4995059;28;20867;-76
2021/11/26 12:48:00;;;;;;;26.30;12.47;;;5.50;1.00;;;;;;4995089;28;20413;-74
2021/11/26 12:53:17;;;;;;;26.40;11.00;;;5.50;1.00;;;;;;4994561;28;20475;-74
2021/11/26 12:56:06;;;;;;;26.63;11.03;;;5.40;1.00;;;;;;4995578;28;20416;-73
2021/11/26 12:58:34;;;;;;;25.37;10.93;;;5.40;1.00;;;;;;4994681;28;20580;-74
2021/11/26 13:01:08;;;;;;;23.07;11.20;;;5.50;1.00;;;;;;4994424;28;20479;-74
2021/11/26 13:03:49;;;;;;;24.87;12.40;;;5.50;1.00;;;;;;4994734;28;20459;-76
2021/11/26 13:06:23;;;;;;;25.00;12.00;;;5.50;1.00;;;;;;4993652;28;20436;-76
2021/11/26 13:09:06;;;;;;;21.90;11.20;;;5.50;1.00;;;;;;4983554;28;20488;-77
2021/11/26 13:11:44;;;;;;;27.60;11.47;;;5.50;1.00;;;;;;4983430;28;20782;-77
2021/11/26 13:14:11;;;;;;;22.87;11.00;;;5.60;1.00;;;;;;4994221;28;20427;-78
2021/11/26 13:16:37;;;;;;;20.80;11.00;;;5.60;1.00;;;;;;4994772;28;20413;-78